Time;durP1;ratioP1;P1;durP2;ratioP2;P2;SDS_P1;SDS_P2;PMS_P1;PMS_P2;Temp;Humidity;BMP_temperature;BMP_pressure;BME280_temperature;BME280_humidity;BME280_pressure;Samples;Min_cycle;Max_cycle;Signal;HPM_P1;HPM_P2
2023/11/15 00:01:58;;;;;;;14.30;5.20;;;;;;;;;;5071713;28;20221;-91
2023/11/15 00:04:24;;;;;;;10.95;5.80;;;;;;;;;;5078144;28;20183;-90
2023/11/15 00:06:50;;;;;;;15.45;5.15;;;;;;;;;;5076561;28;20656;-89
2023/11/15 00:09:16;;;;;;;17.13;6.05;;;;;;;;;;5076790;28;20268;-90
2023/11/15 00:11:42;;;;;;;12.35;4.75;;;;;;;;;;5070861;28;20567;-90
2023/11/15 00:14:08;;;;;;;8.20;5.43;;;;;;;;;;5082366;28;20181;-90
2023/11/15 00:16:35;;;;;;;16.95;4.28;;;;;;;;;;5075698;28;20242;-90
2023/11/15 00:19:03;;;;;;;15.75;5.25;;;;;;;;;;5070774;28;20189;-91
2023/11/15 00:21:29;;;;;;;17.00;5.60;;;;;;;;;;5077209;28;20215;-91
2023/11/15 00:23:55;;;;;;;14.50;5.85;;;;;;;;;;5072052;28;20180;-91
2023/11/15 00:26:21;;;;;;;10.85;4.70;;;;;;;;;;5088534;28;20645;-91
2023/11/15 00:28:47;;;;;;;8.13;4.72;;;;;;;;;;5073384;28;20232;-91
2023/11/15 00:31:13;;;;;;;8.00;3.90;;;;;;;;;;5075047;28;20185;-94
2023/11/15 00:33:40;;;;;;;16.40;4.35;;;;;;;;;;5072364;28;20495;-88
2023/11/15 00:36:11;;;;;;;9.00;3.63;;;;;;;;;;5076324;28;20179;-90
2023/11/15 00:38:39;;;;;;;17.50;5.22;;;;;;;;;;5069560;28;20215;-93
2023/11/15 00:41:08;;;;;;;16.13;5.18;;;;;;;;;;5073390;28;20185;-92
2023/11/15 00:43:34;;;;;;;15.02;4.38;;;;;;;;;;5053557;28;20174;-91
2023/11/15 00:46:00;;;;;;;9.25;3.70;;;;;;;;;;5072491;28;20178;-92
2023/11/15 00:48:26;;;;;;;15.02;4.45;;;;;;;;;;5047236;28;20207;-91
2023/11/15 00:50:52;;;;;;;14.05;4.00;;;;;;;;;;5075064;28;20192;-91
2023/11/15 00:53:18;;;;;;;18.85;4.53;;;;;;;;;;5071768;28;20190;-92
2023/11/15 00:55:44;;;;;;;9.80;4.38;;;;;;;;;;5056825;28;20201;-94
2023/11/15 00:58:10;;;;;;;18.80;4.05;;;;;;;;;;5051320;28;20181;-91
2023/11/15 01:00:44;;;;;;;7.80;3.47;;;;;;;;;;5059317;28;20181;-91
2023/11/15 01:03:12;;;;;;;12.95;3.45;;;;;;;;;;5082461;28;20314;-92
2023/11/15 01:05:38;;;;;;;10.70;5.90;;;;;;;;;;5067380;28;20192;-91
2023/11/15 01:08:04;;;;;;;13.98;4.10;;;;;;;;;;5081585;28;20708;-93
2023/11/15 01:10:31;;;;;;;11.80;3.97;;;;;;;;;;5075800;28;20217;-91
2023/11/15 01:12:58;;;;;;;6.78;3.53;;;;;;;;;;5073114;28;20196;-92
2023/11/15 01:15:27;;;;;;;11.50;4.57;;;;;;;;;;5074451;28;20649;-91
2023/11/15 01:17:53;;;;;;;15.25;4.75;;;;;;;;;;5071886;28;20173;-90
2023/11/15 01:20:19;;;;;;;10.82;4.00;;;;;;;;;;5065865;28;20588;-91
2023/11/15 01:22:45;;;;;;;12.13;3.30;;;;;;;;;;5075851;28;20539;-92
2023/11/15 01:25:12;;;;;;;10.00;4.40;;;;;;;;;;5076211;28;20545;-92
2023/11/15 01:27:38;;;;;;;9.43;3.25;;;;;;;;;;5070761;28;20181;-92
2023/11/15 01:30:04;;;;;;;16.52;4.28;;;;;;;;;;5078068;28;20254;-94
2023/11/15 01:32:31;;;;;;;18.80;4.35;;;;;;;;;;5061230;28;20263;-93
2023/11/15 01:34:57;;;;;;;15.50;4.68;;;;;;;;;;5074107;28;20183;-93
2023/11/15 01:37:23;;;;;;;12.80;4.90;;;;;;;;;;5076286;28;20177;-94
2023/11/15 01:39:50;;;;;;;8.30;3.87;;;;;;;;;;5076131;28;20271;-94
2023/11/15 01:42:16;;;;;;;19.10;3.67;;;;;;;;;;5077520;28;20423;-94
2023/11/15 01:44:42;;;;;;;6.70;4.33;;;;;;;;;;5073987;28;20178;-96
2023/11/15 01:47:08;;;;;;;8.68;3.72;;;;;;;;;;5076469;28;20411;-96
2023/11/15 01:49:34;;;;;;;11.10;3.38;;;;;;;;;;5076097;28;20228;-94
2023/11/15 01:52:00;;;;;;;11.65;4.55;;;;;;;;;;5083366;28;20584;-94
2023/11/15 01:54:28;;;;;;;9.80;3.25;;;;;;;;;;5073075;28;20214;-94
2023/11/15 01:56:54;;;;;;;6.85;3.72;;;;;;;;;;5076661;28;20189;-94
2023/11/15 01:59:20;;;;;;;10.40;3.65;;;;;;;;;;5090235;28;20188;-94
2023/11/15 02:01:47;;;;;;;11.38;4.70;;;;;;;;;;5078479;28;20233;-96
2023/11/15 02:04:13;;;;;;;10.70;3.70;;;;;;;;;;5072439;28;20177;-96
2023/11/15 02:06:39;;;;;;;6.50;3.35;;;;;;;;;;5072980;28;20227;-96
2023/11/15 02:09:10;;;;;;;9.40;3.75;;;;;;;;;;5077927;28;20197;-96
2023/11/15 02:11:36;;;;;;;9.25;3.83;;;;;;;;;;5075715;28;20191;-96
2023/11/15 02:14:03;;;;;;;7.65;4.20;;;;;;;;;;5078071;28;20557;-95
2023/11/15 02:16:29;;;;;;;12.85;3.40;;;;;;;;;;5074513;28;20199;-95
2023/11/15 02:18:56;;;;;;;15.30;5.70;;;;;;;;;;5084628;28;20197;-96
2023/11/15 02:21:22;;;;;;;14.07;3.97;;;;;;;;;;5076517;28;20459;-95
2023/11/15 02:23:51;;;;;;;5.72;3.33;;;;;;;;;;5072036;28;20177;-96
2023/11/15 02:26:19;;;;;;;8.13;3.13;;;;;;;;;;5078632;28;20161;-96
2023/11/15 02:28:45;;;;;;;14.45;4.20;;;;;;;;;;5075819;28;20201;-94
2023/11/15 02:31:11;;;;;;;10.93;3.40;;;;;;;;;;5075421;28;20185;-96
2023/11/15 02:33:38;;;;;;;8.18;3.45;;;;;;;;;;5078656;28;20191;-95
2023/11/15 02:36:04;;;;;;;12.13;4.10;;;;;;;;;;5080604;28;20544;-95
2023/11/15 02:38:30;;;;;;;14.88;3.63;;;;;;;;;;5084771;28;20180;-96
2023/11/15 02:40:56;;;;;;;12.30;3.97;;;;;;;;;;5079275;28;20184;-96
2023/11/15 02:43:25;;;;;;;13.90;3.67;;;;;;;;;;5090847;28;20187;-94
2023/11/15 02:45:53;;;;;;;14.40;3.75;;;;;;;;;;5076988;28;20188;-92
2023/11/15 02:48:22;;;;;;;11.98;3.58;;;;;;;;;;5185108;22;20227;-95
2023/11/15 02:53:24;;;;;;;11.20;3.58;;;;;;;;;;5106701;22;20234;-94
2023/11/15 02:55:50;;;;;;;10.77;3.65;;;;;;;;;;5016930;28;20187;-93
2023/11/15 02:58:17;;;;;;;9.68;3.90;;;;;;;;;;5003160;28;20183;-95
2023/11/15 03:00:44;;;;;;;12.98;3.13;;;;;;;;;;5016896;28;20246;-96
2023/11/15 03:03:12;;;;;;;20.13;3.80;;;;;;;;;;5010457;28;20186;-94
2023/11/15 03:05:39;;;;;;;7.50;3.10;;;;;;;;;;5017593;28;20201;-95
2023/11/15 03:08:05;;;;;;;11.05;3.72;;;;;;;;;;5004343;28;20254;-96
2023/11/15 03:10:35;;;;;;;7.10;2.92;;;;;;;;;;5011702;28;20214;-95
2023/11/15 03:13:01;;;;;;;9.32;3.28;;;;;;;;;;5012533;28;20187;-94
2023/11/15 03:15:28;;;;;;;9.07;3.17;;;;;;;;;;5010502;28;20183;-93
2023/11/15 03:17:54;;;;;;;9.68;2.95;;;;;;;;;;5005364;28;20567;-94
2023/11/15 03:20:20;;;;;;;12.85;3.33;;;;;;;;;;5010618;28;20187;-95
2023/11/15 03:22:47;;;;;;;10.27;3.37;;;;;;;;;;5003455;28;20644;-94
2023/11/15 03:25:13;;;;;;;8.90;3.78;;;;;;;;;;4996810;28;20426;-95
2023/11/15 03:27:39;;;;;;;13.60;4.60;;;;;;;;;;5003201;28;20530;-96
2023/11/15 03:30:06;;;;;;;10.60;2.88;;;;;;;;;;5001393;28;20199;-96
2023/11/15 03:32:32;;;;;;;15.07;3.70;;;;;;;;;;5022929;28;20207;-94
2023/11/15 03:34:58;;;;;;;21.40;4.13;;;;;;;;;;5004917;28;20300;-95
2023/11/15 03:37:24;;;;;;;14.73;2.97;;;;;;;;;;4996404;28;20795;-92
2023/11/15 03:39:51;;;;;;;7.65;2.80;;;;;;;;;;5001896;28;20202;-93
2023/11/15 03:42:17;;;;;;;12.15;3.00;;;;;;;;;;5015924;28;20178;-90
2023/11/15 03:44:42;;;;;;;10.55;3.40;;;;;;;;;;4997783;28;20185;-92
2023/11/15 03:47:08;;;;;;;15.63;3.50;;;;;;;;;;5000493;28;20191;-93
2023/11/15 03:49:35;;;;;;;12.73;2.97;;;;;;;;;;4991126;28;20477;-93
2023/11/15 03:52:01;;;;;;;19.02;4.05;;;;;;;;;;4990136;28;20242;-94
2023/11/15 03:54:27;;;;;;;12.57;3.53;;;;;;;;;;5005459;28;20175;-93
2023/11/15 03:56:53;;;;;;;12.53;4.07;;;;;;;;;;4989981;28;20194;-93
2023/11/15 03:59:19;;;;;;;11.07;3.33;;;;;;;;;;5008724;28;20434;-93
2023/11/15 04:01:49;;;;;;;13.40;3.50;;;;;;;;;;4997617;28;20190;-93
2023/11/15 04:04:15;;;;;;;8.75;2.30;;;;;;;;;;5017062;28;20426;-92
2023/11/15 04:06:41;;;;;;;11.38;3.25;;;;;;;;;;5002707;28;20183;-92
2023/11/15 04:09:07;;;;;;;9.23;3.53;;;;;;;;;;4999192;28;20206;-92
2023/11/15 04:11:37;;;;;;;7.70;3.42;;;;;;;;;;5021026;28;20171;-89
2023/11/15 04:14:03;;;;;;;10.73;3.88;;;;;;;;;;5003620;28;20192;-93
2023/11/15 04:16:29;;;;;;;9.23;3.65;;;;;;;;;;5001657;28;20187;-92
2023/11/15 04:18:56;;;;;;;11.63;3.40;;;;;;;;;;5014610;28;20218;-92
2023/11/15 04:21:22;;;;;;;10.60;3.38;;;;;;;;;;5014316;28;20191;-91
2023/11/15 04:23:48;;;;;;;13.27;3.42;;;;;;;;;;4999184;28;20184;-93
2023/11/15 04:26:14;;;;;;;8.90;3.00;;;;;;;;;;5009487;28;20179;-93
2023/11/15 04:28:40;;;;;;;15.93;3.20;;;;;;;;;;5012962;28;20210;-94
2023/11/15 04:31:06;;;;;;;14.63;3.37;;;;;;;;;;5016373;28;20309;-93
2023/11/15 04:33:33;;;;;;;16.33;3.65;;;;;;;;;;4999438;28;20936;-93
2023/11/15 04:35:59;;;;;;;13.52;3.65;;;;;;;;;;4995759;28;20194;-93
2023/11/15 04:38:26;;;;;;;12.93;3.75;;;;;;;;;;5007758;28;20179;-95
2023/11/15 04:40:52;;;;;;;17.73;3.85;;;;;;;;;;5001383;28;20195;-95
2023/11/15 04:43:18;;;;;;;11.70;2.90;;;;;;;;;;5003093;28;20182;-92
2023/11/15 04:45:44;;;;;;;17.83;3.77;;;;;;;;;;5013708;28;20191;-92
2023/11/15 04:48:10;;;;;;;12.38;3.45;;;;;;;;;;4999793;28;20944;-92
2023/11/15 04:50:36;;;;;;;8.50;4.15;;;;;;;;;;5016104;28;20230;-94
2023/11/15 04:53:05;;;;;;;14.73;3.60;;;;;;;;;;5006298;28;20231;-94
2023/11/15 04:55:31;;;;;;;11.45;3.50;;;;;;;;;;5003047;28;20445;-95
2023/11/15 04:57:57;;;;;;;12.93;3.40;;;;;;;;;;4983890;28;20183;-94
2023/11/15 05:00:23;;;;;;;16.80;4.37;;;;;;;;;;5008167;28;20661;-93
2023/11/15 05:02:49;;;;;;;8.83;3.57;;;;;;;;;;5005962;28;20517;-95
2023/11/15 05:05:15;;;;;;;23.13;4.70;;;;;;;;;;5017931;28;20477;-93
2023/11/15 05:07:41;;;;;;;8.38;3.08;;;;;;;;;;5028019;28;20409;-93
2023/11/15 05:10:09;;;;;;;10.25;3.47;;;;;;;;;;5025303;28;20210;-93
2023/11/15 05:12:36;;;;;;;10.48;3.47;;;;;;;;;;5001271;28;20182;-93
2023/11/15 05:15:02;;;;;;;17.55;4.97;;;;;;;;;;5001510;28;20183;-93
2023/11/15 05:17:28;;;;;;;17.63;4.38;;;;;;;;;;5014683;28;20182;-93
2023/11/15 05:19:54;;;;;;;12.35;3.90;;;;;;;;;;4998179;28;20202;-93
2023/11/15 05:22:20;;;;;;;13.63;3.50;;;;;;;;;;5002168;28;20183;-94
2023/11/15 05:24:46;;;;;;;11.10;3.60;;;;;;;;;;4980929;28;20446;-93
2023/11/15 05:27:12;;;;;;;9.75;3.65;;;;;;;;;;5004775;28;20443;-92
2023/11/15 05:29:38;;;;;;;14.38;3.75;;;;;;;;;;5001392;28;20218;-90
2023/11/15 05:32:04;;;;;;;13.20;3.83;;;;;;;;;;5003672;28;20188;-92
2023/11/15 05:34:30;;;;;;;11.20;3.35;;;;;;;;;;4999537;28;20241;-93
2023/11/15 05:36:56;;;;;;;11.00;3.40;;;;;;;;;;5001509;28;20667;-91
2023/11/15 05:39:22;;;;;;;14.50;4.80;;;;;;;;;;4999882;28;20452;-91
2023/11/15 05:41:48;;;;;;;10.02;3.10;;;;;;;;;;5008735;28;20511;-92
2023/11/15 05:44:15;;;;;;;18.02;3.60;;;;;;;;;;5010594;28;20206;-90
2023/11/15 05:46:41;;;;;;;11.32;2.95;;;;;;;;;;5009700;28;20180;-91
2023/11/15 05:49:07;;;;;;;23.37;4.23;;;;;;;;;;5010301;28;20697;-88
2023/11/15 05:51:36;;;;;;;7.53;3.55;;;;;;;;;;5013919;28;20441;-93
2023/11/15 05:54:05;;;;;;;13.10;4.10;;;;;;;;;;5016693;28;20194;-90
2023/11/15 05:56:34;;;;;;;12.80;3.65;;;;;;;;;;4996388;28;20187;-92
2023/11/15 05:59:01;;;;;;;11.52;3.78;;;;;;;;;;4998853;28;20243;-91
2023/11/15 06:01:27;;;;;;;12.75;4.05;;;;;;;;;;4998549;28;20268;-91
2023/11/15 06:03:53;;;;;;;15.70;4.38;;;;;;;;;;4996584;28;20170;-90
2023/11/15 06:06:20;;;;;;;9.82;4.45;;;;;;;;;;5015079;28;20174;-91
2023/11/15 06:08:47;;;;;;;15.80;4.45;;;;;;;;;;4975334;28;20613;-91
2023/11/15 06:11:13;;;;;;;14.25;4.35;;;;;;;;;;5013249;28;20174;-92
2023/11/15 06:13:39;;;;;;;12.47;3.80;;;;;;;;;;4995064;28;20189;-92
2023/11/15 06:16:08;;;;;;;18.80;4.70;;;;;;;;;;5006822;28;20489;-91
2023/11/15 06:18:35;;;;;;;11.95;3.88;;;;;;;;;;4999920;28;20949;-92
2023/11/15 06:21:01;;;;;;;12.18;3.78;;;;;;;;;;5014939;28;20190;-91
2023/11/15 06:23:27;;;;;;;15.70;4.25;;;;;;;;;;4999887;28;20187;-92
2023/11/15 06:25:53;;;;;;;15.40;3.80;;;;;;;;;;5011708;28;20229;-93
2023/11/15 06:28:19;;;;;;;11.70;3.87;;;;;;;;;;4999198;28;20425;-93
2023/11/15 06:30:47;;;;;;;11.80;4.80;;;;;;;;;;4990585;28;20429;-91
2023/11/15 06:33:13;;;;;;;14.98;4.57;;;;;;;;;;4997304;28;20434;-92
2023/11/15 06:35:39;;;;;;;18.70;4.00;;;;;;;;;;5003021;28;20186;-92
2023/11/15 06:38:05;;;;;;;13.73;4.10;;;;;;;;;;5012904;28;20518;-92
2023/11/15 06:40:31;;;;;;;11.55;4.05;;;;;;;;;;4992754;28;20186;-90
2023/11/15 06:42:57;;;;;;;17.60;3.60;;;;;;;;;;5002137;28;20182;-85
2023/11/15 06:45:23;;;;;;;18.53;4.30;;;;;;;;;;5004900;28;20187;-87
2023/11/15 06:47:50;;;;;;;12.90;3.60;;;;;;;;;;5004894;28;20508;-85
2023/11/15 06:50:16;;;;;;;12.60;4.20;;;;;;;;;;5010141;28;20520;-85
2023/11/15 06:54:13;;;;;;;10.80;4.07;;;;;;;;;;5060983;28;20584;-85
2023/11/15 06:56:39;;;;;;;6.40;3.40;;;;;;;;;;5061116;28;20253;-86
2023/11/15 06:59:06;;;;;;;9.83;3.53;;;;;;;;;;5050948;28;20435;-84
2023/11/15 07:01:32;;;;;;;13.93;3.60;;;;;;;;;;5056049;28;20466;-85
2023/11/15 07:03:58;;;;;;;7.10;3.03;;;;;;;;;;5069067;28;20195;-87
2023/11/15 07:06:27;;;;;;;13.35;4.50;;;;;;;;;;5060868;28;20616;-85
2023/11/15 07:08:53;;;;;;;17.40;4.45;;;;;;;;;;5055085;28;20177;-85
2023/11/15 07:11:19;;;;;;;13.27;4.50;;;;;;;;;;5059278;28;20182;-85
2023/11/15 07:13:45;;;;;;;12.30;3.58;;;;;;;;;;5040490;28;20210;-84
2023/11/15 07:16:11;;;;;;;13.10;3.80;;;;;;;;;;5075619;28;20231;-85
2023/11/15 07:18:37;;;;;;;11.63;4.15;;;;;;;;;;5049811;28;20788;-86
2023/11/15 07:21:04;;;;;;;7.65;3.63;;;;;;;;;;5057600;28;20634;-85
2023/11/15 07:23:31;;;;;;;13.38;3.42;;;;;;;;;;5058274;28;20188;-85
2023/11/15 07:25:57;;;;;;;18.10;3.70;;;;;;;;;;5053039;28;20185;-85
2023/11/15 07:28:23;;;;;;;10.82;3.75;;;;;;;;;;5053414;28;20174;-85
2023/11/15 07:30:50;;;;;;;11.10;3.70;;;;;;;;;;5039844;28;20641;-87
2023/11/15 07:33:16;;;;;;;9.48;3.60;;;;;;;;;;5054016;28;20308;-84
2023/11/15 07:35:42;;;;;;;17.02;3.70;;;;;;;;;;5057700;28;20547;-87
2023/11/15 07:38:08;;;;;;;14.33;4.60;;;;;;;;;;5056507;28;20189;-85
2023/11/15 07:40:37;;;;;;;9.60;3.40;;;;;;;;;;5054011;28;20422;-85
2023/11/15 07:43:05;;;;;;;10.88;3.33;;;;;;;;;;5051936;28;20182;-87
2023/11/15 07:45:35;;;;;;;11.13;3.30;;;;;;;;;;5062187;28;20185;-88
2023/11/15 07:48:01;;;;;;;9.63;2.90;;;;;;;;;;5058499;28;20173;-85
2023/11/15 07:50:27;;;;;;;11.85;3.60;;;;;;;;;;5033713;28;20633;-85
2023/11/15 07:52:53;;;;;;;6.65;3.00;;;;;;;;;;5050005;28;20299;-86
2023/11/15 07:55:19;;;;;;;14.27;4.27;;;;;;;;;;5064563;28;20174;-85
2023/11/15 07:57:45;;;;;;;12.63;3.33;;;;;;;;;;5058055;28;20428;-84
2023/11/15 08:00:11;;;;;;;10.15;4.85;;;;;;;;;;5047407;28;20409;-86
2023/11/15 08:02:38;;;;;;;11.00;3.28;;;;;;;;;;5057108;28;20221;-85
2023/11/15 08:05:07;;;;;;;7.28;2.78;;;;;;;;;;5038925;28;20266;-85
2023/11/15 08:07:37;;;;;;;8.40;2.83;;;;;;;;;;5039301;28;20634;-85
2023/11/15 08:10:05;;;;;;;16.27;4.00;;;;;;;;;;5042337;28;20189;-83
2023/11/15 08:12:35;;;;;;;9.50;3.38;;;;;;;;;;5025851;28;20210;-83
2023/11/15 08:15:03;;;;;;;15.75;4.03;;;;;;;;;;5038488;28;20178;-84
2023/11/15 08:17:29;;;;;;;8.23;3.17;;;;;;;;;;5042207;28;20186;-84
2023/11/15 08:19:56;;;;;;;17.00;3.45;;;;;;;;;;5039678;28;20178;-84
2023/11/15 08:22:22;;;;;;;7.03;2.80;;;;;;;;;;5042226;28;20193;-84
2023/11/15 08:24:48;;;;;;;10.10;3.53;;;;;;;;;;5036193;28;20261;-83
2023/11/15 08:27:14;;;;;;;14.73;3.88;;;;;;;;;;5030419;28;20456;-84
2023/11/15 08:29:41;;;;;;;10.98;2.75;;;;;;;;;;5049436;28;20184;-84
2023/11/15 08:32:11;;;;;;;13.60;3.58;;;;;;;;;;5039999;28;20210;-85
2023/11/15 08:34:37;;;;;;;4.63;2.55;;;;;;;;;;5038315;28;20184;-84
2023/11/15 08:37:04;;;;;;;12.93;3.63;;;;;;;;;;5041552;28;20186;-84
2023/11/15 08:39:32;;;;;;;11.55;3.42;;;;;;;;;;5044791;28;20429;-84
2023/11/15 08:41:59;;;;;;;13.18;3.08;;;;;;;;;;5036817;28;20181;-86
2023/11/15 08:44:25;;;;;;;10.40;2.80;;;;;;;;;;5030444;28;20189;-85
2023/11/15 08:46:51;;;;;;;9.18;3.00;;;;;;;;;;5045359;28;20235;-85
2023/11/15 08:49:17;;;;;;;10.98;2.97;;;;;;;;;;5032311;28;20657;-84
2023/11/15 08:51:45;;;;;;;10.38;3.85;;;;;;;;;;5040980;28;20533;-84
2023/11/15 08:54:11;;;;;;;12.15;4.32;;;;;;;;;;5049803;28;20231;-85
2023/11/15 08:56:40;;;;;;;13.68;3.30;;;;;;;;;;5038747;28;20186;-85
2023/11/15 08:59:10;;;;;;;12.77;3.38;;;;;;;;;;5024033;28;20190;-84
2023/11/15 09:01:38;;;;;;;7.93;2.67;;;;;;;;;;5040640;28;20687;-84
2023/11/15 09:04:05;;;;;;;11.15;2.63;;;;;;;;;;5046426;28;20604;-83
2023/11/15 09:06:31;;;;;;;11.73;3.45;;;;;;;;;;5035428;28;20177;-84
2023/11/15 09:08:58;;;;;;;12.90;4.22;;;;;;;;;;5043535;28;20178;-86
2023/11/15 09:11:24;;;;;;;18.88;3.40;;;;;;;;;;5036216;28;20589;-85
2023/11/15 09:13:50;;;;;;;11.27;3.15;;;;;;;;;;5048618;28;20217;-82
2023/11/15 09:16:19;;;;;;;11.65;3.15;;;;;;;;;;5036884;28;20556;-85
2023/11/15 09:18:45;;;;;;;8.98;3.20;;;;;;;;;;5041220;28;20231;-87
2023/11/15 09:21:12;;;;;;;10.70;3.08;;;;;;;;;;5039457;28;20593;-85
2023/11/15 09:23:38;;;;;;;11.40;3.55;;;;;;;;;;5042959;28;20190;-84
2023/11/15 09:26:06;;;;;;;10.13;2.50;;;;;;;;;;5038076;28;20198;-84
2023/11/15 09:28:33;;;;;;;12.82;2.75;;;;;;;;;;5041127;28;20181;-84
2023/11/15 09:30:58;;;;;;;9.40;2.22;;;;;;;;;;5040108;28;20261;-85
2023/11/15 09:33:25;;;;;;;6.23;1.90;;;;;;;;;;5024470;28;20616;-85
2023/11/15 09:35:51;;;;;;;14.52;2.40;;;;;;;;;;5049603;28;20412;-86
2023/11/15 09:38:17;;;;;;;6.83;2.50;;;;;;;;;;5038593;28;20293;-86
2023/11/15 09:40:43;;;;;;;9.70;2.83;;;;;;;;;;5029316;28;20424;-87
2023/11/15 09:43:10;;;;;;;6.90;1.67;;;;;;;;;;5044516;28;20273;-88
2023/11/15 09:45:38;;;;;;;5.70;2.50;;;;;;;;;;5035822;28;20452;-87
2023/11/15 09:48:08;;;;;;;16.30;2.80;;;;;;;;;;5036329;28;20649;-87
2023/11/15 09:50:36;;;;;;;5.30;1.60;;;;;;;;;;5028121;28;20504;-87
2023/11/15 09:53:05;;;;;;;6.18;1.70;;;;;;;;;;5042515;28;20531;-84
2023/11/15 09:55:31;;;;;;;6.07;2.20;;;;;;;;;;5029384;28;20185;-84
2023/11/15 09:57:57;;;;;;;6.13;2.43;;;;;;;;;;5033322;28;20428;-82
2023/11/15 10:00:29;;;;;;;8.10;2.10;;;;;;;;;;5039867;28;20423;-84
2023/11/15 10:02:55;;;;;;;5.40;1.93;;;;;;;;;;5029317;28;20781;-83
2023/11/15 10:05:23;;;;;;;8.20;2.47;;;;;;;;;;5045302;28;20441;-85
2023/11/15 10:08:08;;;;;;;5.00;1.50;;;;;;;;;;5036537;28;20425;-82
2023/11/15 10:10:34;;;;;;;6.50;1.83;;;;;;;;;;5056550;28;20750;-83
2023/11/15 10:13:00;;;;;;;6.53;2.23;;;;;;;;;;5042521;28;20908;-85
2023/11/15 10:15:36;;;;;;;5.70;2.57;;;;;;;;;;5021560;28;20431;-84
2023/11/15 10:18:03;;;;;;;6.97;2.20;;;;;;;;;;5024595;28;21029;-84
2023/11/15 10:20:30;;;;;;;6.83;2.60;;;;;;;;;;5045563;28;20416;-87
2023/11/15 10:22:57;;;;;;;14.50;2.10;;;;;;;;;;5041670;28;20436;-83
2023/11/15 10:25:26;;;;;;;5.03;1.87;;;;;;;;;;5042478;28;20416;-86
2023/11/15 10:28:03;;;;;;;4.07;1.70;;;;;;;;;;5038619;28;20404;-85
2023/11/15 10:30:29;;;;;;;9.47;1.97;;;;;;;;;;5037714;28;20469;-86
2023/11/15 10:33:10;;;;;;;6.17;2.73;;;;;;;;;;5036073;28;20457;-85
2023/11/15 10:35:36;;;;;;;14.07;3.30;;;;;;;;;;5031178;28;20425;-85
2023/11/15 10:38:02;;;;;;;6.10;1.70;;;;;;;;;;5025808;28;20424;-86
2023/11/15 10:40:30;;;;;;;9.23;2.60;;;;;;;;;;5042235;28;20454;-85
2023/11/15 10:42:58;;;;;;;11.70;2.77;;;;;;;;;;5034056;28;20468;-84
2023/11/15 10:45:27;;;;;;;7.30;2.70;;;;;;;;;;5040704;28;20440;-86
2023/11/15 10:47:58;;;;;;;8.93;2.45;;;;;;;;;;5040993;28;20428;-86
2023/11/15 10:50:31;;;;;;;11.13;2.28;;;;;;;;;;5045792;28;20181;-84
2023/11/15 10:52:57;;;;;;;9.60;2.63;;;;;;;;;;5036415;28;20640;-86
2023/11/15 10:55:26;;;;;;;6.40;2.42;;;;;;;;;;5049511;28;20208;-86
2023/11/15 10:57:52;;;;;;;10.50;2.42;;;;;;;;;;5039693;28;20216;-84
2023/11/15 11:00:20;;;;;;;10.55;2.20;;;;;;;;;;5033331;28;20339;-84
2023/11/15 11:02:48;;;;;;;16.63;2.40;;;;;;;;;;5034240;28;20642;-84
2023/11/15 11:05:16;;;;;;;8.87;2.40;;;;;;;;;;5036285;28;20440;-85
2023/11/15 11:07:46;;;;;;;6.07;2.50;;;;;;;;;;5035019;28;20879;-85
2023/11/15 11:10:24;;;;;;;7.50;2.13;;;;;;;;;;5042146;28;20506;-84
2023/11/15 11:12:50;;;;;;;7.38;2.38;;;;;;;;;;5039897;28;20462;-84
2023/11/15 11:15:16;;;;;;;5.57;1.80;;;;;;;;;;5035013;28;20588;-84
2023/11/15 11:17:45;;;;;;;12.77;2.40;;;;;;;;;;5038368;28;20978;-84
2023/11/15 11:20:27;;;;;;;12.30;2.60;;;;;;;;;;5040463;28;20415;-83
2023/11/15 11:23:07;;;;;;;12.43;2.43;;;;;;;;;;5039609;28;20439;-85
2023/11/15 11:25:34;;;;;;;7.80;2.05;;;;;;;;;;5053125;28;20424;-84
2023/11/15 11:28:01;;;;;;;6.88;2.20;;;;;;;;;;5033518;28;20252;-84
2023/11/15 11:30:28;;;;;;;13.13;2.40;;;;;;;;;;5045418;28;20181;-84
2023/11/15 11:33:15;;;;;;;6.90;2.10;;;;;;;;;;5035745;28;20480;-85
2023/11/15 11:35:42;;;;;;;4.90;2.00;;;;;;;;;;5038515;28;20440;-86
2023/11/15 11:38:12;;;;;;;4.13;1.80;;;;;;;;;;5055297;28;20917;-86
2023/11/15 11:40:42;;;;;;;4.00;1.60;;;;;;;;;;5034239;28;20443;-85
2023/11/15 11:43:13;;;;;;;7.40;2.17;;;;;;;;;;5047071;28;20432;-84
2023/11/15 11:45:40;;;;;;;13.23;2.50;;;;;;;;;;5030747;28;20556;-85
2023/11/15 11:48:15;;;;;;;4.27;2.10;;;;;;;;;;5054141;28;20412;-85
2023/11/15 11:50:51;;;;;;;4.83;1.70;;;;;;;;;;5032160;28;20953;-85
2023/11/15 11:53:17;;;;;;;5.70;1.60;;;;;;;;;;5032979;28;20498;-85
2023/11/15 11:55:44;;;;;;;7.40;2.13;;;;;;;;;;5041372;28;20441;-85
2023/11/15 11:58:10;;;;;;;9.23;2.23;;;;;;;;;;5044933;28;20424;-85
2023/11/15 12:00:36;;;;;;;12.50;2.40;;;;;;;;;;5041240;28;20762;-86
2023/11/15 12:03:02;;;;;;;10.27;2.20;;;;;;;;;;5024371;28;20664;-84
2023/11/15 12:05:28;;;;;;;6.73;2.10;;;;;;;;;;5040277;28;20518;-86
2023/11/15 12:07:56;;;;;;;6.00;2.33;;;;;;;;;;5041556;28;20434;-86
2023/11/15 12:10:24;;;;;;;10.17;2.13;;;;;;;;;;5042303;28;20517;-85
2023/11/15 12:13:04;;;;;;;8.70;2.40;;;;;;;;;;5018112;28;20476;-88
2023/11/15 12:15:31;;;;;;;12.13;2.47;;;;;;;;;;5065135;28;20480;-87
2023/11/15 12:17:58;;;;;;;12.10;2.73;;;;;;;;;;5044447;28;20431;-86
2023/11/15 12:20:27;;;;;;;7.23;2.10;;;;;;;;;;5038418;28;20512;-84
2023/11/15 12:23:03;;;;;;;6.90;1.57;;;;;;;;;;5041469;28;20435;-85
2023/11/15 12:25:30;;;;;;;4.90;2.13;;;;;;;;;;5041698;28;20500;-85
2023/11/15 12:28:00;;;;;;;7.03;2.10;;;;;;;;;;5040499;28;20405;-86
2023/11/15 12:30:27;;;;;;;11.23;1.77;;;;;;;;;;5035176;28;20424;-85
2023/11/15 12:32:53;;;;;;;3.27;2.13;;;;;;;;;;5021067;28;20498;-86
2023/11/15 12:35:19;;;;;;;9.60;2.13;;;;;;;;;;5041856;28;20416;-88
2023/11/15 12:37:48;;;;;;;5.43;1.97;;;;;;;;;;5032188;28;20846;-86
2023/11/15 12:40:20;;;;;;;5.17;1.90;;;;;;;;;;5031564;28;20436;-87
2023/11/15 12:42:54;;;;;;;4.93;1.50;;;;;;;;;;5040310;28;20783;-88
2023/11/15 12:45:30;;;;;;;3.37;1.17;;;;;;;;;;5044863;28;20398;-81
2023/11/15 12:48:03;;;;;;;7.93;1.53;;;;;;;;;;5039944;28;20412;-85
2023/11/15 12:50:30;;;;;;;9.27;1.93;;;;;;;;;;5031884;28;20443;-85
2023/11/15 12:53:05;;;;;;;8.23;2.10;;;;;;;;;;5040726;28;20492;-84
2023/11/15 12:55:49;;;;;;;5.57;1.70;;;;;;;;;;5046404;28;20407;-84
2023/11/15 12:58:15;;;;;;;8.90;2.17;;;;;;;;;;5047362;28;20414;-85
2023/11/15 13:00:57;;;;;;;4.03;1.40;;;;;;;;;;5043116;28;20478;-86
2023/11/15 13:03:26;;;;;;;8.07;2.80;;;;;;;;;;5046605;28;20431;-85
2023/11/15 13:05:53;;;;;;;8.80;2.03;;;;;;;;;;5044987;28;20182;-85
2023/11/15 13:08:20;;;;;;;4.93;1.53;;;;;;;;;;5044515;28;20432;-85
2023/11/15 13:10:46;;;;;;;8.10;2.30;;;;;;;;;;5033812;28;20431;-85
2023/11/15 13:13:12;;;;;;;9.83;2.00;;;;;;;;;;5044703;28;20465;-87
2023/11/15 13:15:39;;;;;;;3.30;1.43;;;;;;;;;;5047581;28;20836;-86
2023/11/15 13:18:05;;;;;;;4.40;1.23;;;;;;;;;;5044551;28;20462;-85
2023/11/15 13:20:34;;;;;;;3.23;1.73;;;;;;;;;;5043895;28;20421;-84
2023/11/15 13:23:00;;;;;;;4.23;1.40;;;;;;;;;;5061770;28;20530;-83
2023/11/15 13:25:26;;;;;;;4.87;1.63;;;;;;;;;;5060511;28;20464;-86
2023/11/15 13:27:52;;;;;;;3.03;1.23;;;;;;;;;;5043382;28;20432;-86
2023/11/15 13:30:20;;;;;;;4.40;3.10;;;;;;;;;;5040240;28;20432;-88
2023/11/15 13:32:46;;;;;;;3.40;1.83;;;;;;;;;;5026084;28;21113;-86
2023/11/15 13:35:12;;;;;;;6.07;1.50;;;;;;;;;;5039083;28;20444;-85
2023/11/15 13:37:38;;;;;;;9.60;1.60;;;;;;;;;;5037628;28;20428;-85
2023/11/15 13:40:04;;;;;;;5.53;1.30;;;;;;;;;;5045227;28;20901;-84
2023/11/15 13:42:32;;;;;;;5.20;1.63;;;;;;;;;;5036762;28;20420;-83
2023/11/15 13:44:59;;;;;;;4.10;1.40;;;;;;;;;;5038601;28;20417;-84
2023/11/15 13:47:28;;;;;;;5.30;1.60;;;;;;;;;;5036457;28;20878;-85
2023/11/15 13:49:54;;;;;;;4.20;1.53;;;;;;;;;;5040416;28;20441;-84
2023/11/15 13:52:20;;;;;;;8.00;1.63;;;;;;;;;;5055357;28;20493;-85
2023/11/15 13:54:46;;;;;;;2.77;1.50;;;;;;;;;;5047780;28;20430;-86
2023/11/15 13:57:13;;;;;;;8.47;1.57;;;;;;;;;;5046855;28;20436;-85
2023/11/15 13:59:41;;;;;;;3.53;1.93;;;;;;;;;;5039773;28;20876;-85
2023/11/15 14:02:07;;;;;;;5.53;1.70;;;;;;;;;;5044556;28;20436;-84
2023/11/15 14:04:35;;;;;;;4.67;1.93;;;;;;;;;;5044428;28;20420;-85
2023/11/15 14:07:01;;;;;;;4.77;1.80;;;;;;;;;;5028984;28;20856;-85
2023/11/15 14:09:28;;;;;;;8.60;2.13;;;;;;;;;;5021413;28;20460;-84
2023/11/15 14:11:54;;;;;;;8.10;2.50;;;;;;;;;;5025414;28;20431;-84
2023/11/15 14:14:22;;;;;;;6.40;2.30;;;;;;;;;;5039932;28;20479;-85
2023/11/15 14:16:48;;;;;;;8.40;1.70;;;;;;;;;;5037706;28;20432;-84
2023/11/15 14:19:14;;;;;;;6.87;2.13;;;;;;;;;;5045354;28;20479;-85
2023/11/15 14:21:42;;;;;;;7.87;1.70;;;;;;;;;;5039740;28;20882;-85
2023/11/15 14:24:11;;;;;;;3.77;1.80;;;;;;;;;;5034204;28;20491;-85
2023/11/15 14:26:38;;;;;;;6.03;1.75;;;;;;;;;;5038818;28;20614;-84
2023/11/15 14:29:08;;;;;;;7.77;2.30;;;;;;;;;;5036548;28;20209;-85
2023/11/15 14:31:40;;;;;;;5.30;1.70;;;;;;;;;;5042917;28;20412;-85
2023/11/15 14:34:07;;;;;;;4.53;2.00;;;;;;;;;;5032181;28;20229;-84
2023/11/15 14:36:37;;;;;;;4.30;1.80;;;;;;;;;;5034710;28;20189;-87
2023/11/15 14:39:07;;;;;;;10.43;2.55;;;;;;;;;;5046773;28;20173;-84
2023/11/15 14:41:33;;;;;;;5.55;1.85;;;;;;;;;;5043950;28;20240;-85